Time;durP1;ratioP1;P1;durP2;ratioP2;P2;SDS_P1;SDS_P2;PMS_P1;PMS_P2;Temp;Humidity;BMP_temperature;BMP_pressure;BME280_temperature;BME280_humidity;BME280_pressure;Samples;Min_cycle;Max_cycle;Signal;HPM_P1;HPM_P2
2022/08/01 00:01:56;;;;;;;0.90;0.82;;;;;;;20.54;52.65;94400.38;2618195;54;20203;-78
2022/08/01 00:04:25;;;;;;;0.90;0.90;;;;;;;20.02;50.05;94346.91;2618209;54;20156;-78
2022/08/01 00:06:57;;;;;;;0.98;0.98;;;;;;;20.20;51.29;94352.53;2618173;54;20148;-78
2022/08/01 00:09:26;;;;;;;1.00;1.00;;;;;;;20.01;50.19;94367.78;2618268;54;20157;-78
2022/08/01 00:11:54;;;;;;;0.93;0.93;;;;;;;20.36;51.79;94382.59;2618226;47;20152;-79
2022/08/01 00:14:23;;;;;;;1.00;1.00;;;;;;;20.35;53.74;94358.13;2618244;47;20156;-79
2022/08/01 00:16:51;;;;;;;1.08;1.05;;;;;;;20.78;51.55;94390.06;2618199;47;20291;-80
2022/08/01 00:19:20;;;;;;;1.10;1.00;;;;;;;20.60;49.70;94358.63;2618073;47;20191;-79
2022/08/01 00:21:52;;;;;;;0.70;0.70;;;;;;;20.93;49.43;94399.97;2618268;47;20163;-78
2022/08/01 00:24:23;;;;;;;1.10;1.10;;;;;;;20.76;50.73;94376.44;2617732;54;20134;-78
2022/08/01 00:26:52;;;;;;;1.10;0.77;;;;;;;21.02;50.83;94389.09;2618723;39;20581;-78
2022/08/01 00:29:20;;;;;;;0.73;0.70;;;;;;;20.79;49.72;94395.09;2618045;54;20157;-78
2022/08/01 00:31:49;;;;;;;0.55;0.55;;;;;;;20.75;50.34;94403.06;2618105;54;20690;-78
2022/08/01 00:34:18;;;;;;;1.30;1.20;;;;;;;20.53;50.64;94381.69;2618124;47;20164;-78
2022/08/01 00:36:46;;;;;;;0.80;0.80;;;;;;;20.51;51.55;94375.25;2618187;47;20149;-78
2022/08/01 00:39:15;;;;;;;1.20;0.80;;;;;;;20.40;48.97;94359.53;2617438;46;20260;-78
2022/08/01 00:41:46;;;;;;;0.73;0.73;;;;;;;20.37;50.03;94349.50;2618356;47;20152;-78
2022/08/01 00:44:15;;;;;;;0.90;0.90;;;;;;;20.63;51.92;94368.66;2617833;47;20228;-78
2022/08/01 00:46:44;;;;;;;1.60;0.90;;;;;;;20.69;49.35;94391.59;2618084;54;20153;-78
2022/08/01 00:49:13;;;;;;;0.68;0.65;;;;;;;20.73;50.72;94395.16;2618080;54;20149;-79
2022/08/01 00:51:42;;;;;;;0.80;0.80;;;;;;;20.67;49.21;94392.34;2618276;47;20151;-78
2022/08/01 00:54:10;;;;;;;0.77;0.77;;;;;;;20.56;50.48;94388.16;2617992;54;20220;-78
2022/08/01 00:56:39;;;;;;;1.05;1.05;;;;;;;20.56;51.13;94400.38;2618003;47;20153;-78
2022/08/01 00:59:11;;;;;;;1.13;1.13;;;;;;;20.78;51.33;94401.56;2618245;47;20674;-79
2022/08/01 01:01:40;;;;;;;1.25;1.17;;;;;;;20.61;52.66;94372.28;2618441;39;20534;-78
2022/08/01 01:04:09;;;;;;;1.08;1.08;;;;;;;20.97;52.05;94394.19;2618090;54;20145;-79
2022/08/01 01:06:47;;;;;;;1.52;1.42;;;;;;;21.15;52.91;94379.56;2617836;47;20156;-80
2022/08/01 01:09:26;;;;;;;1.17;1.17;;;;;;;20.70;51.44;94324.69;2617993;54;20153;-80
2022/08/01 01:12:16;;;;;;;1.40;1.40;;;;;;;20.69;51.90;94345.56;2617891;47;20156;-78
2022/08/01 01:14:53;;;;;;;1.38;1.20;;;;;;;20.68;53.80;94352.78;2617905;54;20245;-79
2022/08/01 01:17:29;;;;;;;1.10;1.10;;;;;;;20.79;52.53;94351.22;2618396;39;20543;-79
2022/08/01 01:20:02;;;;;;;1.10;1.00;;;;;;;20.85;50.99;94377.06;2617962;54;20232;-78
2022/08/01 01:22:46;;;;;;;0.95;0.93;;;;;;;20.79;52.48;94377.09;2618147;47;20159;-78
2022/08/01 01:25:35;;;;;;;0.90;0.90;;;;;;;20.69;47.71;94369.31;2617834;47;20160;-78
2022/08/01 01:28:12;;;;;;;0.98;0.98;;;;;;;20.20;49.35;94334.56;2618002;47;20149;-79
2022/08/01 01:30:47;;;;;;;0.95;0.88;;;;;;;20.26;49.81;94317.22;2617976;50;20240;-78
2022/08/01 01:33:17;;;;;;;0.60;0.60;;;;;;;19.90;47.60;94352.78;2618056;54;20148;-77
2022/08/01 01:35:49;;;;;;;1.00;0.93;;;;;;;20.41;50.75;94361.69;2617940;47;20156;-78
2022/08/01 01:38:22;;;;;;;0.77;0.77;;;;;;;20.35;49.88;94346.63;2618035;54;20240;-78
2022/08/01 01:40:54;;;;;;;0.70;0.70;;;;;;;20.03;50.56;94290.16;2617858;47;20156;-78
2022/08/01 01:43:24;;;;;;;0.70;0.70;;;;;;;20.70;47.82;94361.38;2615040;54;20149;-78
2022/08/01 01:45:56;;;;;;;2.78;0.80;;;;;;;20.62;45.39;94356.44;2618245;54;20156;-78
2022/08/01 01:48:27;;;;;;;3.25;1.30;;;;;;;20.37;44.81;94330.06;2618057;47;20165;-78
2022/08/01 01:50:57;;;;;;;0.70;0.70;;;;;;;20.15;44.09;94336.03;2617968;54;20145;-79
2022/08/01 01:53:27;;;;;;;0.80;0.80;;;;;;;19.83;46.41;94311.88;2618190;47;20133;-79
2022/08/01 01:55:58;;;;;;;0.73;0.73;;;;;;;20.05;45.23;94321.75;2618104;54;20171;-78
2022/08/01 01:58:28;;;;;;;0.95;0.80;;;;;;;20.27;45.71;94332.31;2618026;54;20149;-78
2022/08/01 02:01:02;;;;;;;1.15;0.70;;;;;;;20.03;46.28;94310.97;2618162;47;20156;-78
2022/08/01 02:03:31;;;;;;;0.63;0.60;;;;;;;19.96;44.68;94331.88;2618003;54;20148;-79
2022/08/01 02:06:03;;;;;;;0.80;0.80;;;;;;;20.52;48.63;94336.41;2617904;54;20148;-79
2022/08/01 02:08:33;;;;;;;0.70;0.70;;;;;;;20.68;46.79;94327.59;2618028;47;20176;-78
2022/08/01 02:13:46;;;;;;;0.70;0.70;;;;;;;20.07;43.10;94302.31;2617694;47;20171;-80
2022/08/01 02:16:19;;;;;;;1.73;0.95;;;;;;;20.27;45.43;94306.44;2617225;47;20667;-80
2022/08/01 02:18:48;;;;;;;0.80;0.80;;;;;;;20.12;45.40;94303.00;2618143;54;20145;-80
2022/08/01 02:21:23;;;;;;;0.77;0.77;;;;;;;20.38;41.85;94328.63;2617741;54;20157;-80
2022/08/01 02:23:54;;;;;;;1.40;1.13;;;;;;;20.07;42.56;94284.38;2617730;47;20152;-80
2022/08/01 02:26:26;;;;;;;0.85;0.85;;;;;;;20.54;44.71;94333.50;2617351;47;20185;-80
2022/08/01 02:28:59;;;;;;;0.80;0.80;;;;;;;20.29;46.33;94318.63;2617375;47;20188;-79
2022/08/01 02:31:37;;;;;;;1.08;1.08;;;;;;;20.73;44.80;94322.50;2617313;47;20251;-80
2022/08/01 02:34:09;;;;;;;0.50;0.50;;;;;;;20.66;43.03;94321.84;2617274;47;20153;-80
2022/08/01 02:36:39;;;;;;;0.88;0.88;;;;;;;20.92;43.58;94332.34;2617444;54;20149;-78
2022/08/01 02:39:13;;;;;;;1.00;0.77;;;;;;;21.00;47.10;94332.25;2617286;47;20156;-78
2022/08/01 02:41:44;;;;;;;1.83;0.80;;;;;;;20.94;46.43;94301.38;2617442;47;20155;-79
2022/08/01 02:44:19;;;;;;;0.60;0.60;;;;;;;20.66;40.50;94270.06;2617551;47;20171;-78
2022/08/01 02:46:54;;;;;;;0.90;0.90;;;;;;;20.79;43.86;94279.97;2617560;47;20144;-79
2022/08/01 02:49:24;;;;;;;0.73;0.73;;;;;;;20.71;45.10;94285.13;2618722;46;20252;-78
2022/08/01 02:51:55;;;;;;;0.80;0.80;;;;;;;20.19;42.84;94261.25;2618339;54;20161;-78
2022/08/01 02:54:25;;;;;;;0.90;0.90;;;;;;;20.65;45.51;94302.44;2617857;54;20152;-78
2022/08/01 02:56:55;;;;;;;1.45;0.85;;;;;;;20.67;48.31;94311.06;2618350;47;20137;-79
2022/08/01 02:59:26;;;;;;;1.67;0.90;;;;;;;20.76;46.62;94309.53;2617908;54;20156;-79
2022/08/01 03:01:59;;;;;;;0.70;0.70;;;;;;;21.01;45.87;94325.03;2618131;54;20719;-80
2022/08/01 03:04:29;;;;;;;1.52;0.63;;;;;;;20.86;42.02;94323.78;2618402;39;20537;-80
2022/08/01 03:06:59;;;;;;;1.92;0.90;;;;;;;20.44;46.77;94253.78;2618057;46;20152;-79
2022/08/01 03:09:30;;;;;;;0.77;0.77;;;;;;;20.78;42.63;94301.56;2617753;47;20164;-79
2022/08/01 03:12:02;;;;;;;1.42;1.33;;;;;;;20.36;45.99;94279.06;2618011;47;20161;-79
2022/08/01 03:14:33;;;;;;;0.85;0.85;;;;;;;20.98;45.43;94320.03;2618020;54;20169;-79
2022/08/01 03:17:07;;;;;;;0.90;0.90;;;;;;;20.53;42.84;94298.25;2618077;54;20149;-79
2022/08/01 03:19:37;;;;;;;0.70;0.70;;;;;;;20.46;46.10;94287.56;2618027;54;20149;-79
2022/08/01 03:22:10;;;;;;;0.82;0.82;;;;;;;20.66;46.23;94315.38;2617994;47;20149;-80
2022/08/01 03:24:40;;;;;;;0.75;0.75;;;;;;;20.18;45.01;94271.31;2617980;54;20141;-80
2022/08/01 03:27:11;;;;;;;1.45;0.90;;;;;;;19.98;42.72;94269.34;2617891;47;20192;-80
2022/08/01 03:29:41;;;;;;;1.95;1.00;;;;;;;20.35;42.74;94318.59;2617769;54;20275;-80
2022/08/01 03:32:14;;;;;;;1.80;0.90;;;;;;;20.47;44.72;94312.72;2618428;39;20564;-79
2022/08/01 03:34:43;;;;;;;0.93;0.93;;;;;;;20.58;45.46;94299.66;2618078;47;20157;-79
2022/08/01 03:37:17;;;;;;;0.90;0.90;;;;;;;20.58;47.03;94302.53;2618020;47;20195;-79
2022/08/01 03:39:51;;;;;;;1.35;1.25;;;;;;;20.42;44.96;94305.59;2617976;47;20733;-78
2022/08/01 03:42:23;;;;;;;0.80;0.80;;;;;;;20.26;44.69;94305.72;2617847;47;20267;-79
2022/08/01 03:44:57;;;;;;;1.13;1.13;;;;;;;20.58;46.71;94339.22;2617925;47;20161;-79
2022/08/01 03:47:34;;;;;;;1.05;1.05;;;;;;;20.43;44.70;94326.44;2617818;54;20157;-81
2022/08/01 03:50:06;;;;;;;1.58;0.75;;;;;;;20.39;46.66;94306.34;2618043;54;20276;-81
2022/08/01 03:52:37;;;;;;;1.02;1.02;;;;;;;20.65;45.81;94311.78;2618181;39;20570;-80
2022/08/01 03:55:10;;;;;;;1.08;1.08;;;;;;;20.68;47.53;94321.13;2617833;54;20160;-79
2022/08/01 03:57:39;;;;;;;1.02;1.00;;;;;;;20.66;47.60;94283.72;2617685;47;20160;-79
2022/08/01 04:00:10;;;;;;;0.93;0.93;;;;;;;20.43;44.74;94237.25;2617745;47;20145;-79
2022/08/01 04:02:42;;;;;;;1.08;1.08;;;;;;;20.47;43.98;94291.88;2617930;46;20547;-79
2022/08/01 04:05:11;;;;;;;0.95;0.95;;;;;;;20.69;43.84;94326.16;2617832;47;20149;-79
2022/08/01 04:07:42;;;;;;;0.82;0.82;;;;;;;20.00;43.09;94277.94;2617788;54;20152;-79
2022/08/01 04:10:11;;;;;;;0.73;0.73;;;;;;;20.07;43.84;94313.13;2617969;47;20248;-79
2022/08/01 04:12:40;;;;;;;0.70;0.70;;;;;;;20.16;43.11;94305.84;2617725;54;20156;-79
2022/08/01 04:15:11;;;;;;;1.23;1.23;;;;;;;19.86;43.31;94272.34;2617844;54;20176;-79
2022/08/01 04:17:42;;;;;;;0.70;0.63;;;;;;;20.35;43.28;94327.22;2617686;47;20163;-79
2022/08/01 04:20:13;;;;;;;1.10;0.93;;;;;;;20.14;44.84;94303.69;2617750;47;20156;-79
2022/08/01 04:22:42;;;;;;;0.82;0.82;;;;;;;20.35;45.37;94347.34;2617685;47;20157;-79
2022/08/01 04:25:15;;;;;;;0.52;0.52;;;;;;;20.12;42.65;94289.31;2617782;46;20244;-79
2022/08/01 04:27:49;;;;;;;0.77;0.77;;;;;;;20.46;44.42;94339.34;2617752;47;20225;-78
2022/08/01 04:30:19;;;;;;;1.35;1.35;;;;;;;20.54;48.41;94337.09;2617712;46;20149;-79
2022/08/01 04:32:52;;;;;;;1.20;1.20;;;;;;;20.54;48.20;94327.75;2617611;54;20157;-80
2022/08/01 04:35:22;;;;;;;2.85;1.35;;;;;;;20.78;47.39;94318.13;2617701;54;20145;-79
2022/08/01 04:37:53;;;;;;;1.30;1.30;;;;;;;20.48;47.30;94285.41;2617522;47;20152;-79
2022/08/01 04:40:26;;;;;;;1.13;1.02;;;;;;;20.42;47.59;94255.97;2617803;46;20291;-79
2022/08/01 04:42:55;;;;;;;1.30;1.27;;;;;;;20.96;47.78;94322.94;2617525;47;20153;-79
2022/08/01 04:45:24;;;;;;;1.38;1.33;;;;;;;20.86;46.62;94283.50;2617633;47;20144;-79
2022/08/01 04:47:56;;;;;;;1.13;1.10;;;;;;;21.24;47.24;94345.63;2618514;31;20602;-79
2022/08/01 04:50:26;;;;;;;6.07;1.65;;;;;;;20.74;48.58;94280.78;2617599;47;20153;-79
2022/08/01 04:52:55;;;;;;;1.70;1.63;;;;;;;21.17;48.24;94342.13;2617653;54;20156;-79
2022/08/01 04:55:24;;;;;;;1.73;1.63;;;;;;;20.82;48.58;94303.69;2617717;54;20149;-79
2022/08/01 04:57:53;;;;;;;2.05;1.95;;;;;;;21.18;50.17;94348.59;2592356;47;20133;-81
2022/08/01 05:00:21;;;;;;;2.47;2.28;;;;;;;21.36;49.08;94319.53;2617750;54;20180;-81
2022/08/01 05:02:50;;;;;;;1.73;1.63;;;;;;;21.21;47.53;94315.44;2617755;47;20152;-79
2022/08/01 05:05:22;;;;;;;5.38;2.00;;;;;;;21.51;46.08;94346.00;2617630;54;20206;-79
2022/08/01 05:07:50;;;;;;;2.05;1.85;;;;;;;21.18;47.59;94305.41;2617621;47;20153;-80
2022/08/01 05:10:19;;;;;;;1.40;1.40;;;;;;;21.46;47.22;94321.56;2617317;54;20157;-81
2022/08/01 05:12:48;;;;;;;1.92;1.80;;;;;;;21.49;47.86;94289.09;2617046;54;20157;-80
2022/08/01 05:15:17;;;;;;;1.60;1.50;;;;;;;21.79;46.36;94331.16;2617330;39;20563;-80
2022/08/01 05:17:46;;;;;;;1.23;1.20;;;;;;;21.53;44.97;94332.28;2617504;54;20224;-80
2022/08/01 05:20:15;;;;;;;6.68;1.52;;;;;;;21.44;47.30;94319.44;2617200;54;20145;-80
2022/08/01 05:22:46;;;;;;;2.08;1.63;;;;;;;21.59;47.13;94326.41;2617482;47;20257;-80
2022/08/01 05:25:15;;;;;;;1.98;1.63;;;;;;;21.74;46.03;94344.19;2617393;54;20145;-80
2022/08/01 05:27:44;;;;;;;2.00;1.90;;;;;;;21.70;46.09;94318.34;2617433;54;20770;-80
2022/08/01 05:30:13;;;;;;;1.83;1.73;;;;;;;21.92;46.77;94334.56;2617542;46;20161;-80
2022/08/01 05:32:42;;;;;;;1.55;1.23;;;;;;;21.69;44.15;94331.31;2617560;54;20712;-80
2022/08/01 05:35:11;;;;;;;1.45;1.35;;;;;;;21.42;42.62;94315.88;2617637;54;20691;-80
2022/08/01 05:37:40;;;;;;;1.17;1.17;;;;;;;21.61;44.17;94335.03;2617825;47;20149;-79
2022/08/01 05:40:12;;;;;;;0.90;0.90;;;;;;;20.82;42.42;94254.75;2617548;54;20236;-79
2022/08/01 05:42:41;;;;;;;1.23;1.23;;;;;;;21.13;42.81;94295.38;2617719;47;20145;-80
2022/08/01 05:45:10;;;;;;;0.90;0.90;;;;;;;21.12;42.81;94303.28;2617459;54;20141;-80
2022/08/01 05:47:39;;;;;;;1.00;1.00;;;;;;;21.17;41.84;94316.19;2617637;54;20686;-80
2022/08/01 05:50:08;;;;;;;0.80;0.80;;;;;;;20.83;42.43;94297.19;2617601;47;20173;-80
2022/08/01 05:52:37;;;;;;;1.35;1.25;;;;;;;21.32;42.31;94341.94;2617537;47;20145;-80
2022/08/01 05:55:07;;;;;;;0.65;0.65;;;;;;;20.98;43.52;94340.91;2617500;54;20133;-80
2022/08/01 05:57:39;;;;;;;1.63;1.10;;;;;;;20.89;42.68;94322.31;2617608;46;20187;-79
2022/08/01 06:00:09;;;;;;;0.50;0.50;;;;;;;20.68;42.33;94316.09;2617439;47;20148;-82
2022/08/01 06:02:43;;;;;;;0.68;0.68;;;;;;;20.87;43.42;94307.94;2617533;47;20149;-77
2022/08/01 06:05:13;;;;;;;1.17;1.17;;;;;;;21.20;42.61;94334.88;2617290;47;20260;-78
2022/08/01 06:07:42;;;;;;;0.75;0.75;;;;;;;21.04;42.12;94314.94;2617377;47;20153;-78
2022/08/01 06:10:12;;;;;;;5.18;1.00;;;;;;;21.02;42.10;94314.97;2617284;54;20164;-79
2022/08/01 06:12:43;;;;;;;1.08;1.08;;;;;;;21.08;42.46;94346.53;2617595;54;20149;-78
2022/08/01 06:15:13;;;;;;;0.80;0.80;;;;;;;21.04;42.74;94303.41;2617392;54;20220;-78
2022/08/01 06:17:42;;;;;;;1.05;1.05;;;;;;;21.27;43.06;94321.13;2617774;54;20232;-77
2022/08/01 06:20:12;;;;;;;1.00;1.00;;;;;;;21.49;42.87;94328.72;2617356;47;20733;-77
2022/08/01 06:22:41;;;;;;;0.68;0.68;;;;;;;21.39;42.23;94309.44;2617875;54;20151;-78
2022/08/01 06:25:11;;;;;;;0.80;0.80;;;;;;;21.48;41.49;94353.22;2618216;54;20199;-78
2022/08/01 06:27:40;;;;;;;0.80;0.80;;;;;;;21.79;42.09;94351.34;2618058;54;20272;-77
2022/08/01 06:30:13;;;;;;;1.17;1.17;;;;;;;21.96;41.79;94322.97;2618091;47;20152;-77
2022/08/01 06:32:42;;;;;;;0.70;0.70;;;;;;;21.76;41.59;94321.09;2618195;47;20149;-78
2022/08/01 06:35:11;;;;;;;2.05;0.82;;;;;;;21.49;41.94;94288.38;2617870;54;20156;-79
2022/08/01 06:37:40;;;;;;;0.90;0.90;;;;;;;22.02;42.20;94342.34;2617845;54;20687;-77
2022/08/01 06:40:11;;;;;;;0.82;0.82;;;;;;;21.79;41.84;94339.81;2617989;47;20156;-78
2022/08/01 06:42:40;;;;;;;0.73;0.73;;;;;;;21.75;42.30;94354.28;2589568;47;20153;-78
2022/08/01 06:45:14;;;;;;;1.73;0.90;;;;;;;21.82;42.23;94323.19;2617874;54;20165;-77
2022/08/01 06:47:44;;;;;;;1.33;1.23;;;;;;;21.92;42.33;94291.31;2617883;47;20267;-78
2022/08/01 06:50:14;;;;;;;0.93;0.93;;;;;;;22.35;41.55;94328.81;2617881;47;20160;-78
2022/08/01 06:52:43;;;;;;;1.95;0.80;;;;;;;22.34;41.62;94333.16;2617570;47;20145;-78
2022/08/01 06:55:12;;;;;;;0.68;0.68;;;;;;;21.83;41.86;94307.31;2617828;46;20169;-77
2022/08/01 06:57:48;;;;;;;1.02;1.00;;;;;;;22.21;42.44;94308.88;2617961;39;20562;-78
2022/08/01 07:00:22;;;;;;;1.30;1.30;;;;;;;21.85;42.27;94302.25;2617887;54;20148;-77
2022/08/01 07:02:51;;;;;;;0.98;0.98;;;;;;;21.70;42.20;94308.97;2617698;47;20142;-78
2022/08/01 07:05:20;;;;;;;4.32;1.08;;;;;;;21.84;42.96;94309.47;2617623;47;20702;-78
2022/08/01 07:07:49;;;;;;;1.23;1.23;;;;;;;21.90;43.64;94242.31;2617777;47;20164;-78
2022/08/01 07:10:18;;;;;;;1.27;1.27;;;;;;;22.00;41.82;94270.31;2616377;46;20183;-78
2022/08/01 07:12:47;;;;;;;0.95;0.95;;;;;;;21.67;42.10;94273.69;2617185;54;20159;-78
2022/08/01 07:15:21;;;;;;;0.75;0.75;;;;;;;21.91;42.61;94302.13;2617156;54;20164;-78
2022/08/01 07:17:50;;;;;;;1.20;1.15;;;;;;;21.84;43.61;94262.63;2616927;51;20279;-78
2022/08/01 07:20:19;;;;;;;0.95;0.95;;;;;;;22.72;42.43;94325.94;2617142;54;20163;-78
2022/08/01 07:22:48;;;;;;;1.10;1.10;;;;;;;22.42;42.23;94333.00;2617189;47;20794;-79
2022/08/01 07:25:16;;;;;;;1.52;1.17;;;;;;;22.19;42.47;94323.31;2616827;47;20149;-78
2022/08/01 07:27:45;;;;;;;1.10;1.00;;;;;;;22.09;43.05;94327.09;2617044;47;20192;-77
2022/08/01 07:30:15;;;;;;;1.38;1.25;;;;;;;22.11;43.58;94329.25;2617119;54;20152;-77
2022/08/01 07:32:47;;;;;;;0.88;0.88;;;;;;;22.23;43.46;94323.97;2616802;54;20184;-78
2022/08/01 07:35:15;;;;;;;1.15;1.15;;;;;;;22.43;42.82;94307.72;2616956;46;20180;-78
2022/08/01 07:37:44;;;;;;;1.65;1.35;;;;;;;22.81;41.64;94321.47;2617253;47;20179;-79
2022/08/01 07:40:14;;;;;;;0.98;0.98;;;;;;;22.26;42.32;94292.91;2617157;54;20684;-78
2022/08/01 07:42:44;;;;;;;0.88;0.88;;;;;;;22.36;41.57;94307.16;2616919;47;20160;-77
2022/08/01 07:45:13;;;;;;;3.40;1.25;;;;;;;22.15;41.97;94243.34;2617134;47;20160;-78
2022/08/01 07:47:42;;;;;;;1.30;1.30;;;;;;;22.17;41.14;94282.97;2617075;54;20137;-78
2022/08/01 07:50:14;;;;;;;0.90;0.90;;;;;;;22.55;41.89;94322.66;2616986;54;20280;-78
2022/08/01 07:52:44;;;;;;;0.70;0.70;;;;;;;22.60;40.26;94335.56;2617039;47;20262;-78
2022/08/01 07:55:13;;;;;;;0.80;0.80;;;;;;;22.70;39.54;94334.63;2617136;54;20149;-78
2022/08/01 07:57:42;;;;;;;0.32;0.32;;;;;;;22.68;40.02;94328.94;2616972;39;20562;-78
2022/08/01 08:00:12;;;;;;;1.08;1.08;;;;;;;22.78;40.51;94331.63;2617872;31;20595;-78
2022/08/01 08:02:41;;;;;;;1.10;1.10;;;;;;;22.79;40.68;94315.03;2616925;54;20148;-79
2022/08/01 08:05:14;;;;;;;1.10;1.10;;;;;;;22.99;40.64;94332.66;2616872;47;20396;-79
2022/08/01 08:07:43;;;;;;;0.73;0.73;;;;;;;23.13;39.95;94334.53;2616785;47;20149;-78
2022/08/01 08:10:12;;;;;;;0.85;0.85;;;;;;;22.75;40.83;94332.41;2617014;54;20187;-78
2022/08/01 08:12:41;;;;;;;0.88;0.88;;;;;;;22.78;41.10;94325.16;2616437;47;20153;-78
2022/08/01 08:15:10;;;;;;;1.48;1.48;;;;;;;22.99;41.48;94323.28;2617011;54;20207;-77
2022/08/01 08:17:39;;;;;;;0.50;0.50;;;;;;;22.48;41.13;94283.13;2617320;47;20156;-77
2022/08/01 08:20:10;;;;;;;0.82;0.82;;;;;;;23.20;41.40;94327.16;2617249;54;20152;-77
2022/08/01 08:22:42;;;;;;;2.10;1.40;;;;;;;23.24;41.57;94291.69;2617623;47;20137;-79
2022/08/01 08:25:12;;;;;;;1.40;1.00;;;;;;;23.10;40.80;94298.47;2617351;54;20145;-78
2022/08/01 08:27:41;;;;;;;1.23;1.13;;;;;;;23.52;41.16;94325.03;2617542;47;20199;-77
2022/08/01 08:30:11;;;;;;;0.60;0.60;;;;;;;23.49;40.00;94332.34;2617583;47;20174;-77
2022/08/01 08:32:39;;;;;;;1.80;1.73;;;;;;;23.61;39.69;94324.13;2617242;54;20133;-78
2022/08/01 08:35:10;;;;;;;1.55;1.10;;;;;;;23.87;39.79;94314.13;2617655;54;20149;-78
2022/08/01 08:37:42;;;;;;;1.65;1.55;;;;;;;24.14;40.29;94327.94;2617441;47;20137;-79
2022/08/01 08:40:13;;;;;;;1.00;1.00;;;;;;;23.67;40.03;94332.66;2617582;54;20164;-79
2022/08/01 08:42:43;;;;;;;1.30;0.73;;;;;;;23.48;40.02;94325.84;2617361;54;20240;-78
2022/08/01 08:45:13;;;;;;;1.30;1.20;;;;;;;23.32;39.28;94280.69;2617031;47;20384;-77
2022/08/01 08:47:46;;;;;;;1.20;1.20;;;;;;;23.54;40.26;94304.78;2617368;47;20232;-78
2022/08/01 08:50:15;;;;;;;1.20;1.20;;;;;;;24.08;38.79;94320.09;2617519;54;20145;-78
2022/08/01 08:52:48;;;;;;;0.88;0.88;;;;;;;24.03;37.79;94322.41;2617423;54;20141;-79
2022/08/01 08:55:19;;;;;;;0.90;0.90;;;;;;;23.44;37.31;94256.56;2617430;54;20157;-79
2022/08/01 08:57:48;;;;;;;0.70;0.70;;;;;;;23.91;37.76;94322.00;2617692;39;20666;-77
2022/08/01 09:00:18;;;;;;;0.80;0.80;;;;;;;24.54;38.28;94326.22;2617992;39;20695;-78
2022/08/01 09:02:48;;;;;;;3.00;0.75;;;;;;;24.13;37.58;94286.00;2617076;54;20351;-78
2022/08/01 09:05:25;;;;;;;1.95;1.10;;;;;;;23.96;37.47;94263.28;2617746;47;20159;-77
2022/08/01 09:07:56;;;;;;;0.73;0.73;;;;;;;24.74;36.19;94305.38;2617362;47;20152;-77
2022/08/01 09:10:25;;;;;;;0.98;0.98;;;;;;;24.57;36.80;94276.19;2617400;54;20145;-78
2022/08/01 09:13:10;;;;;;;1.13;1.13;;;;;;;24.95;34.58;94305.56;2616781;54;20659;-79
2022/08/01 09:15:44;;;;;;;0.55;0.55;;;;;;;24.49;36.02;94322.00;2616889;47;20674;-78
2022/08/01 09:18:29;;;;;;;0.60;0.60;;;;;;;24.14;36.97;94287.44;2616818;47;20156;-78
2022/08/01 09:21:11;;;;;;;0.68;0.68;;;;;;;23.88;37.90;94301.09;2617316;47;20157;-77
2022/08/01 09:23:45;;;;;;;1.58;1.48;;;;;;;24.16;38.50;94293.16;2617377;46;20133;-78
2022/08/01 09:26:14;;;;;;;0.60;0.60;;;;;;;23.91;38.26;94295.97;2616771;47;20188;-78
2022/08/01 09:28:44;;;;;;;2.47;1.00;;;;;;;24.34;36.77;94304.28;2617308;54;20149;-78
2022/08/01 09:31:14;;;;;;;0.80;0.80;;;;;;;24.78;36.27;94287.91;2617096;47;20660;-78
2022/08/01 09:33:51;;;;;;;0.60;0.60;;;;;;;24.32;36.62;94295.69;2617360;54;20154;-78
2022/08/01 09:36:21;;;;;;;1.05;1.05;;;;;;;23.89;37.01;94261.31;2616705;54;20137;-79
2022/08/01 09:38:54;;;;;;;1.00;1.00;;;;;;;23.92;38.34;94240.22;2616009;47;20153;-79
2022/08/01 09:41:33;;;;;;;0.80;0.80;;;;;;;23.99;38.70;94270.44;2616599;54;20140;-78
2022/08/01 09:44:01;;;;;;;1.02;1.02;;;;;;;24.06;38.44;94265.91;2616598;47;20158;-78
2022/08/01 09:46:30;;;;;;;1.48;1.40;;;;;;;24.58;38.24;94300.75;2616599;47;20184;-79
2022/08/01 09:49:01;;;;;;;1.02;1.02;;;;;;;24.24;38.85;94299.47;2616528;54;20160;-80
2022/08/01 09:51:35;;;;;;;1.38;1.27;;;;;;;23.84;39.36;94237.56;2616393;47;20149;-80
2022/08/01 09:54:08;;;;;;;1.05;1.05;;;;;;;24.09;39.89;94281.75;2615663;47;20157;-80
2022/08/01 09:56:42;;;;;;;1.27;1.27;;;;;;;24.32;40.40;94292.78;2617066;47;20179;-81
2022/08/01 09:59:11;;;;;;;0.82;0.82;;;;;;;24.33;39.57;94294.88;2617356;54;20133;-80
2022/08/01 10:01:48;;;;;;;0.70;0.70;;;;;;;24.59;39.49;94305.09;2617237;47;20149;-81
2022/08/01 10:04:18;;;;;;;0.90;0.90;;;;;;;24.72;37.82;94283.00;2616881;54;20190;-81
2022/08/01 10:06:52;;;;;;;1.13;1.13;;;;;;;24.81;37.13;94300.84;2599714;47;20295;-80
2022/08/01 10:09:31;;;;;;;1.27;1.27;;;;;;;24.77;37.36;94290.09;2617661;47;20145;-80
2022/08/01 10:12:02;;;;;;;2.55;1.58;;;;;;;24.28;38.45;94269.72;2618024;54;20148;-80
2022/08/01 10:14:32;;;;;;;0.80;0.80;;;;;;;24.47;38.63;94273.53;2617662;54;20149;-80
2022/08/01 10:17:02;;;;;;;1.95;1.10;;;;;;;24.48;38.06;94248.19;2617656;47;20675;-81
2022/08/01 10:19:32;;;;;;;1.35;1.35;;;;;;;24.56;38.10;94279.84;2617698;54;20145;-81
2022/08/01 10:22:01;;;;;;;1.58;1.42;;;;;;;24.09;38.53;94218.09;2617595;54;20180;-80
2022/08/01 10:24:33;;;;;;;1.20;1.20;;;;;;;24.55;38.48;94282.03;2618315;31;20660;-80
2022/08/01 10:27:06;;;;;;;1.08;0.95;;;;;;;24.79;37.11;94271.94;2617723;47;20185;-80
2022/08/01 10:29:39;;;;;;;2.72;1.20;;;;;;;24.75;36.74;94266.97;2617564;47;20145;-80
2022/08/01 10:32:09;;;;;;;0.95;0.95;;;;;;;24.89;35.57;94198.53;2617718;47;20157;-80
2022/08/01 10:34:38;;;;;;;1.05;1.05;;;;;;;24.79;36.19;94226.31;2617500;47;20150;-80
2022/08/01 10:37:08;;;;;;;0.80;0.80;;;;;;;25.13;36.07;94271.00;2617632;54;20175;-80
2022/08/01 10:39:41;;;;;;;1.30;1.20;;;;;;;25.51;36.46;94268.38;2617432;47;20149;-79
2022/08/01 10:42:13;;;;;;;0.82;0.75;;;;;;;25.15;36.50;94261.50;2617539;54;20715;-79
2022/08/01 10:44:46;;;;;;;1.52;1.45;;;;;;;25.39;35.81;94265.88;2617498;47;20145;-78
2022/08/01 10:47:16;;;;;;;0.90;0.90;;;;;;;24.89;36.67;94198.53;2617589;47;20153;-79
2022/08/01 10:49:50;;;;;;;1.52;1.20;;;;;;;25.29;36.01;94214.69;2618076;39;20524;-79
2022/08/01 10:52:20;;;;;;;2.10;1.52;;;;;;;25.66;35.72;94254.19;2617290;54;20172;-79
2022/08/01 10:55:03;;;;;;;0.77;0.60;;;;;;;25.07;35.72;94255.97;2617689;47;20172;-79
2022/08/01 10:57:45;;;;;;;1.08;1.08;;;;;;;25.22;35.98;94267.84;2617400;47;20149;-79
2022/08/01 11:00:20;;;;;;;0.80;0.80;;;;;;;24.88;36.31;94266.63;2617678;47;20145;-79
2022/08/01 11:03:01;;;;;;;1.50;1.40;;;;;;;24.99;37.04;94262.00;2617481;47;20156;-80
2022/08/01 11:05:33;;;;;;;0.75;0.75;;;;;;;24.73;37.26;94225.81;2617488;47;20253;-79
2022/08/01 11:08:06;;;;;;;0.68;0.68;;;;;;;24.88;37.09;94235.47;2617579;47;20659;-79
2022/08/01 11:10:40;;;;;;;1.42;1.42;;;;;;;25.21;37.14;94251.94;2618375;47;20153;-79
2022/08/01 11:13:11;;;;;;;0.90;0.90;;;;;;;24.82;36.89;94241.47;2618191;54;20171;-79
2022/08/01 11:15:40;;;;;;;0.90;0.65;;;;;;;24.96;36.97;94220.06;2618759;39;20577;-80
2022/08/01 11:18:34;;;;;;;1.65;1.55;;;;;;;25.45;35.77;94220.00;2618217;46;20145;-79
2022/08/01 11:21:04;;;;;;;1.20;1.20;;;;;;;25.60;35.66;94225.34;2618130;47;20683;-80
2022/08/01 11:23:49;;;;;;;1.60;1.35;;;;;;;25.96;35.43;94253.19;2618337;54;20145;-79
2022/08/01 11:26:21;;;;;;;1.40;1.40;;;;;;;26.07;34.83;94259.38;2618379;47;20189;-80
2022/08/01 11:29:17;;;;;;;2.95;1.33;;;;;;;25.76;36.35;94224.84;2618324;47;20232;-80
2022/08/01 11:31:47;;;;;;;1.27;1.27;;;;;;;26.09;36.06;94245.50;2618250;47;20145;-80
2022/08/01 11:34:16;;;;;;;1.33;1.30;;;;;;;26.00;35.33;94206.63;2618232;47;20157;-80
2022/08/01 11:36:45;;;;;;;1.58;1.20;;;;;;;26.29;35.79;94249.91;2618427;39;20402;-80
2022/08/01 11:39:21;;;;;;;0.90;0.90;;;;;;;25.90;35.82;94215.66;2617948;47;20161;-80
2022/08/01 11:41:54;;;;;;;3.92;1.15;;;;;;;25.88;36.00;94198.31;2618226;54;20145;-79
2022/08/01 11:44:27;;;;;;;2.38;1.30;;;;;;;25.87;35.33;94225.22;2617942;47;20640;-80
2022/08/01 11:47:07;;;;;;;0.95;0.95;;;;;;;25.73;35.97;94241.59;2618243;54;20149;-79
2022/08/01 11:49:47;;;;;;;1.48;1.40;;;;;;;25.90;35.89;94235.97;2618170;54;20148;-79
2022/08/01 11:52:19;;;;;;;1.85;1.10;;;;;;;25.25;36.17;94185.16;2617916;47;20183;-80
2022/08/01 11:54:52;;;;;;;1.30;1.10;;;;;;;25.49;36.10;94248.88;2618303;54;20672;-80
2022/08/01 11:57:25;;;;;;;2.05;1.55;;;;;;;24.94;36.86;94170.91;2617979;54;20145;-80